sensor_id;sensor_type;location;lat;lon;timestamp;temperature;humidity
18797;DHT22;9526;52.612;13.300;2023-09-19T00:00:07;18.10;99.90
18797;DHT22;9526;52.612;13.300;2023-09-19T00:02:36;18.10;99.90
18797;DHT22;9526;52.612;13.300;2023-09-19T00:05:01;18.10;99.90
18797;DHT22;9526;52.612;13.300;2023-09-19T00:07:25;18.00;99.90
18797;DHT22;9526;52.612;13.300;2023-09-19T00:09:50;18.10;99.90
18797;DHT22;9526;52.612;13.300;2023-09-19T00:12:14;18.00;99.90
18797;DHT22;9526;52.612;13.300;2023-09-19T00:14:37;18.10;99.90
18797;DHT22;9526;52.612;13.300;2023-09-19T00:17:02;18.00;99.90
18797;DHT22;9526;52.612;13.300;2023-09-19T00:19:31;18.10;99.90
18797;DHT22;9526;52.612;13.300;2023-09-19T00:21:55;18.00;99.90
18797;DHT22;9526;52.612;13.300;2023-09-19T00:24:19;18.00;99.90
18797;DHT22;9526;52.612;13.300;2023-09-19T00:26:43;18.00;99.90
18797;DHT22;9526;52.612;13.300;2023-09-19T00:29:09;18.00;99.90
18797;DHT22;9526;52.612;13.300;2023-09-19T00:31:35;18.00;99.90
18797;DHT22;9526;52.612;13.300;2023-09-19T00:33:59;18.00;99.90
18797;DHT22;9526;52.612;13.300;2023-09-19T00:36:33;18.00;99.90
18797;DHT22;9526;52.612;13.300;2023-09-19T00:38:57;18.00;99.90
18797;DHT22;9526;52.612;13.300;2023-09-19T00:41:21;17.90;99.90
18797;DHT22;9526;52.612;13.300;2023-09-19T00:43:46;17.90;99.90
18797;DHT22;9526;52.612;13.300;2023-09-19T00:46:16;17.90;99.90
18797;DHT22;9526;52.612;13.300;2023-09-19T00:48:42;17.90;99.90
18797;DHT22;9526;52.612;13.300;2023-09-19T00:51:06;17.90;99.90
18797;DHT22;9526;52.612;13.300;2023-09-19T00:53:32;17.90;99.90
18797;DHT22;9526;52.612;13.300;2023-09-19T00:55:57;17.90;99.90
18797;DHT22;9526;52.612;13.300;2023-09-19T00:58:21;17.90;99.90
18797;DHT22;9526;52.612;13.300;2023-09-19T01:00:45;17.90;99.90
18797;DHT22;9526;52.612;13.300;2023-09-19T01:03:10;17.90;99.90
18797;DHT22;9526;52.612;13.300;2023-09-19T01:05:35;17.80;99.90
18797;DHT22;9526;52.612;13.300;2023-09-19T01:07:59;17.90;99.90
18797;DHT22;9526;52.612;13.300;2023-09-19T01:10:26;17.90;99.90
18797;DHT22;9526;52.612;13.300;2023-09-19T01:12:55;17.90;99.90
18797;DHT22;9526;52.612;13.300;2023-09-19T01:15:31;17.90;99.90
18797;DHT22;9526;52.612;13.300;2023-09-19T01:18:11;17.90;99.90
18797;DHT22;9526;52.612;13.300;2023-09-19T01:20:48;17.90;99.90
18797;DHT22;9526;52.612;13.300;2023-09-19T01:23:21;17.90;99.90
18797;DHT22;9526;52.612;13.300;2023-09-19T01:26:08;18.00;99.90
18797;DHT22;9526;52.612;13.300;2023-09-19T01:29:10;18.00;99.90
18797;DHT22;9526;52.612;13.300;2023-09-19T01:31:43;18.00;99.90
18797;DHT22;9526;52.612;13.300;2023-09-19T01:34:08;18.00;99.90
18797;DHT22;9526;52.612;13.300;2023-09-19T01:36:33;18.10;99.90
18797;DHT22;9526;52.612;13.300;2023-09-19T01:38:59;18.10;99.90
18797;DHT22;9526;52.612;13.300;2023-09-19T01:41:38;18.10;99.90
18797;DHT22;9526;52.612;13.300;2023-09-19T01:44:11;18.10;99.90
18797;DHT22;9526;52.612;13.300;2023-09-19T01:46:42;18.10;99.90
18797;DHT22;9526;52.612;13.300;2023-09-19T01:49:18;18.20;99.90
18797;DHT22;9526;52.612;13.300;2023-09-19T01:51:53;18.20;99.90
18797;DHT22;9526;52.612;13.300;2023-09-19T01:54:26;18.20;99.90
18797;DHT22;9526;52.612;13.300;2023-09-19T01:56:59;18.20;99.90
18797;DHT22;9526;52.612;13.300;2023-09-19T01:59:34;18.20;99.90
18797;DHT22;9526;52.612;13.300;2023-09-19T02:02:02;18.20;99.90
18797;DHT22;9526;52.612;13.300;2023-09-19T02:04:29;18.10;99.90
18797;DHT22;9526;52.612;13.300;2023-09-19T02:06:53;18.10;99.90
18797;DHT22;9526;52.612;13.300;2023-09-19T02:09:19;18.10;99.90
18797;DHT22;9526;52.612;13.300;2023-09-19T02:11:43;18.10;99.90
18797;DHT22;9526;52.612;13.300;2023-09-19T02:14:07;18.10;99.90
18797;DHT22;9526;52.612;13.300;2023-09-19T02:16:31;18.00;99.90
18797;DHT22;9526;52.612;13.300;2023-09-19T02:18:56;18.00;99.90
18797;DHT22;9526;52.612;13.300;2023-09-19T02:21:22;18.00;99.90
18797;DHT22;9526;52.612;13.300;2023-09-19T02:23:45;17.90;99.90
18797;DHT22;9526;52.612;13.300;2023-09-19T02:26:10;17.90;99.90
18797;DHT22;9526;52.612;13.300;2023-09-19T02:28:35;17.90;99.90
18797;DHT22;9526;52.612;13.300;2023-09-19T02:31:00;17.90;99.90
18797;DHT22;9526;52.612;13.300;2023-09-19T02:33:23;17.90;99.90
18797;DHT22;9526;52.612;13.300;2023-09-19T02:35:49;17.80;99.90
18797;DHT22;9526;52.612;13.300;2023-09-19T02:38:13;17.80;99.90
18797;DHT22;9526;52.612;13.300;2023-09-19T02:40:40;17.80;99.90
18797;DHT22;9526;52.612;13.300;2023-09-19T02:43:05;17.70;99.90
18797;DHT22;9526;52.612;13.300;2023-09-19T02:45:31;17.70;99.90
18797;DHT22;9526;52.612;13.300;2023-09-19T02:47:55;17.70;99.90
18797;DHT22;9526;52.612;13.300;2023-09-19T02:50:20;17.70;99.90
18797;DHT22;9526;52.612;13.300;2023-09-19T02:52:46;17.70;99.90
18797;DHT22;9526;52.612;13.300;2023-09-19T02:55:12;17.70;99.90
18797;DHT22;9526;52.612;13.300;2023-09-19T02:57:36;17.60;99.90
18797;DHT22;9526;52.612;13.300;2023-09-19T03:00:03;17.60;99.90
18797;DHT22;9526;52.612;13.300;2023-09-19T03:02:27;17.60;99.90
18797;DHT22;9526;52.612;13.300;2023-09-19T03:04:55;17.60;99.90
18797;DHT22;9526;52.612;13.300;2023-09-19T03:07:20;17.60;99.90
18797;DHT22;9526;52.612;13.300;2023-09-19T03:09:45;17.50;99.90
18797;DHT22;9526;52.612;13.300;2023-09-19T03:12:09;17.50;99.90
18797;DHT22;9526;52.612;13.300;2023-09-19T03:14:37;17.50;99.90
18797;DHT22;9526;52.612;13.300;2023-09-19T03:17:01;17.50;99.90
18797;DHT22;9526;52.612;13.300;2023-09-19T03:19:27;17.50;99.90
18797;DHT22;9526;52.612;13.300;2023-09-19T03:21:52;17.50;99.90
18797;DHT22;9526;52.612;13.300;2023-09-19T03:24:16;17.50;99.90
18797;DHT22;9526;52.612;13.300;2023-09-19T03:26:42;17.50;99.90
18797;DHT22;9526;52.612;13.300;2023-09-19T03:29:07;17.50;99.90
18797;DHT22;9526;52.612;13.300;2023-09-19T03:31:33;17.50;99.90
18797;DHT22;9526;52.612;13.300;2023-09-19T03:34:02;17.50;99.90
18797;DHT22;9526;52.612;13.300;2023-09-19T03:36:28;17.50;99.90
18797;DHT22;9526;52.612;13.300;2023-09-19T03:38:55;17.40;99.90
18797;DHT22;9526;52.612;13.300;2023-09-19T03:41:21;17.40;99.90
18797;DHT22;9526;52.612;13.300;2023-09-19T03:43:47;17.40;99.90
18797;DHT22;9526;52.612;13.300;2023-09-19T03:46:11;17.40;99.90
18797;DHT22;9526;52.612;13.300;2023-09-19T03:48:38;17.30;99.90
18797;DHT22;9526;52.612;13.300;2023-09-19T03:51:01;17.40;99.90
18797;DHT22;9526;52.612;13.300;2023-09-19T03:53:25;17.30;99.90
18797;DHT22;9526;52.612;13.300;2023-09-19T03:55:49;17.30;99.90
18797;DHT22;9526;52.612;13.300;2023-09-19T03:58:13;17.30;99.90
18797;DHT22;9526;52.612;13.300;2023-09-19T04:00:38;17.30;99.90
18797;DHT22;9526;52.612;13.300;2023-09-19T04:03:02;17.20;99.90
18797;DHT22;9526;52.612;13.300;2023-09-19T04:05:29;17.20;99.90
18797;DHT22;9526;52.612;13.300;2023-09-19T04:07:52;17.20;99.90
18797;DHT22;9526;52.612;13.300;2023-09-19T04:10:17;17.20;99.90
18797;DHT22;9526;52.612;13.300;2023-09-19T04:12:50;17.10;99.90
18797;DHT22;9526;52.612;13.300;2023-09-19T04:15:15;17.10;99.90
18797;DHT22;9526;52.612;13.300;2023-09-19T04:17:40;17.00;99.90
18797;DHT22;9526;52.612;13.300;2023-09-19T04:20:05;17.00;99.90
18797;DHT22;9526;52.612;13.300;2023-09-19T04:22:30;17.00;99.90
18797;DHT22;9526;52.612;13.300;2023-09-19T04:24:53;16.90;99.90
18797;DHT22;9526;52.612;13.300;2023-09-19T04:27:17;16.90;99.90
18797;DHT22;9526;52.612;13.300;2023-09-19T04:29:41;16.90;99.90
18797;DHT22;9526;52.612;13.300;2023-09-19T04:32:05;16.90;99.90
18797;DHT22;9526;52.612;13.300;2023-09-19T04:34:30;16.90;99.90
18797;DHT22;9526;52.612;13.300;2023-09-19T04:36:56;16.80;99.90
18797;DHT22;9526;52.612;13.300;2023-09-19T04:39:22;16.70;99.90
18797;DHT22;9526;52.612;13.300;2023-09-19T04:41:48;16.70;99.90
18797;DHT22;9526;52.612;13.300;2023-09-19T04:44:11;16.70;99.90
18797;DHT22;9526;52.612;13.300;2023-09-19T04:46:35;16.60;99.90
18797;DHT22;9526;52.612;13.300;2023-09-19T04:48:59;16.60;99.90
18797;DHT22;9526;52.612;13.300;2023-09-19T04:51:25;16.60;99.90
18797;DHT22;9526;52.612;13.300;2023-09-19T04:53:51;16.60;99.90
18797;DHT22;9526;52.612;13.300;2023-09-19T04:56:14;16.50;99.90
18797;DHT22;9526;52.612;13.300;2023-09-19T04:58:38;16.50;99.90
18797;DHT22;9526;52.612;13.300;2023-09-19T05:01:02;16.50;99.90
18797;DHT22;9526;52.612;13.300;2023-09-19T05:03:26;16.50;99.90
18797;DHT22;9526;52.612;13.300;2023-09-19T05:05:49;16.50;99.90
18797;DHT22;9526;52.612;13.300;2023-09-19T05:08:15;16.50;99.90
18797;DHT22;9526;52.612;13.300;2023-09-19T05:10:38;16.40;99.90
18797;DHT22;9526;52.612;13.300;2023-09-19T05:13:03;16.40;99.90
18797;DHT22;9526;52.612;13.300;2023-09-19T05:15:27;16.40;99.90
18797;DHT22;9526;52.612;13.300;2023-09-19T05:17:51;16.40;99.90
18797;DHT22;9526;52.612;13.300;2023-09-19T05:20:19;16.40;99.90
18797;DHT22;9526;52.612;13.300;2023-09-19T05:22:47;16.40;99.90
18797;DHT22;9526;52.612;13.300;2023-09-19T05:25:14;16.30;99.90
18797;DHT22;9526;52.612;13.300;2023-09-19T05:27:38;16.30;99.90
18797;DHT22;9526;52.612;13.300;2023-09-19T05:30:02;16.30;99.90
18797;DHT22;9526;52.612;13.300;2023-09-19T05:32:26;16.30;99.90
18797;DHT22;9526;52.612;13.300;2023-09-19T05:34:50;16.30;99.90
18797;DHT22;9526;52.612;13.300;2023-09-19T05:37:15;16.30;99.90
18797;DHT22;9526;52.612;13.300;2023-09-19T05:39:40;16.30;99.90
18797;DHT22;9526;52.612;13.300;2023-09-19T05:42:05;16.30;99.90
18797;DHT22;9526;52.612;13.300;2023-09-19T05:44:30;16.30;99.90
18797;DHT22;9526;52.612;13.300;2023-09-19T05:46:55;16.30;99.90
18797;DHT22;9526;52.612;13.300;2023-09-19T05:49:19;16.30;99.90
18797;DHT22;9526;52.612;13.300;2023-09-19T05:51:44;16.40;99.90
18797;DHT22;9526;52.612;13.300;2023-09-19T05:54:09;16.40;99.90
18797;DHT22;9526;52.612;13.300;2023-09-19T05:56:33;16.40;99.90
18797;DHT22;9526;52.612;13.300;2023-09-19T05:58:58;16.50;99.90
18797;DHT22;9526;52.612;13.300;2023-09-19T06:01:22;16.50;99.90
18797;DHT22;9526;52.612;13.300;2023-09-19T06:03:46;16.60;99.90
18797;DHT22;9526;52.612;13.300;2023-09-19T06:06:09;16.60;99.90
18797;DHT22;9526;52.612;13.300;2023-09-19T06:08:33;16.60;99.90
18797;DHT22;9526;52.612;13.300;2023-09-19T06:10:57;16.60;99.90
18797;DHT22;9526;52.612;13.300;2023-09-19T06:13:21;16.70;99.90
18797;DHT22;9526;52.612;13.300;2023-09-19T06:15:49;16.70;99.90
18797;DHT22;9526;52.612;13.300;2023-09-19T06:18:13;16.70;99.90
18797;DHT22;9526;52.612;13.300;2023-09-19T06:20:41;16.70;99.90
18797;DHT22;9526;52.612;13.300;2023-09-19T06:23:07;16.70;99.90
18797;DHT22;9526;52.612;13.300;2023-09-19T06:25:32;16.70;99.90
18797;DHT22;9526;52.612;13.300;2023-09-19T06:27:55;16.80;99.90
18797;DHT22;9526;52.612;13.300;2023-09-19T06:30:20;17.10;99.90
18797;DHT22;9526;52.612;13.300;2023-09-19T06:32:46;17.40;99.90
18797;DHT22;9526;52.612;13.300;2023-09-19T06:35:11;17.70;99.90
18797;DHT22;9526;52.612;13.300;2023-09-19T06:37:35;18.20;99.90
18797;DHT22;9526;52.612;13.300;2023-09-19T06:40:00;18.60;99.90
18797;DHT22;9526;52.612;13.300;2023-09-19T06:42:27;18.90;99.90
18797;DHT22;9526;52.612;13.300;2023-09-19T06:44:51;19.50;99.90
18797;DHT22;9526;52.612;13.300;2023-09-19T06:47:15;19.70;99.90
18797;DHT22;9526;52.612;13.300;2023-09-19T06:49:40;20.40;99.90
18797;DHT22;9526;52.612;13.300;2023-09-19T06:52:06;20.30;99.90
18797;DHT22;9526;52.612;13.300;2023-09-19T06:54:29;20.40;99.90
18797;DHT22;9526;52.612;13.300;2023-09-19T06:56:53;20.70;99.90
18797;DHT22;9526;52.612;13.300;2023-09-19T06:59:17;20.60;99.90
18797;DHT22;9526;52.612;13.300;2023-09-19T07:01:40;20.70;99.90
18797;DHT22;9526;52.612;13.300;2023-09-19T07:04:07;20.70;99.90
18797;DHT22;9526;52.612;13.300;2023-09-19T07:06:32;20.70;99.90
18797;DHT22;9526;52.612;13.300;2023-09-19T07:08:56;20.50;99.90
18797;DHT22;9526;52.612;13.300;2023-09-19T07:11:20;20.30;99.90
18797;DHT22;9526;52.612;13.300;2023-09-19T07:13:44;20.00;99.90
18797;DHT22;9526;52.612;13.300;2023-09-19T07:16:09;19.90;99.90
18797;DHT22;9526;52.612;13.300;2023-09-19T07:18:49;19.80;99.90
18797;DHT22;9526;52.612;13.300;2023-09-19T07:21:13;19.80;99.90
18797;DHT22;9526;52.612;13.300;2023-09-19T07:23:39;19.80;99.90
18797;DHT22;9526;52.612;13.300;2023-09-19T07:26:03;19.60;99.90
18797;DHT22;9526;52.612;13.300;2023-09-19T07:28:27;19.70;99.90
18797;DHT22;9526;52.612;13.300;2023-09-19T07:30:51;19.70;99.90
18797;DHT22;9526;52.612;13.300;2023-09-19T07:33:15;19.60;99.90
18797;DHT22;9526;52.612;13.300;2023-09-19T07:35:39;19.40;99.90
18797;DHT22;9526;52.612;13.300;2023-09-19T07:38:03;19.20;99.90
18797;DHT22;9526;52.612;13.300;2023-09-19T07:40:28;19.20;99.90
18797;DHT22;9526;52.612;13.300;2023-09-19T07:42:53;19.30;99.90
18797;DHT22;9526;52.612;13.300;2023-09-19T07:45:16;19.20;99.90
18797;DHT22;9526;52.612;13.300;2023-09-19T07:47:43;19.30;99.90
18797;DHT22;9526;52.612;13.300;2023-09-19T07:50:07;19.30;99.90
18797;DHT22;9526;52.612;13.300;2023-09-19T07:52:31;19.40;99.90
18797;DHT22;9526;52.612;13.300;2023-09-19T07:54:55;19.30;99.90
18797;DHT22;9526;52.612;13.300;2023-09-19T07:57:21;19.50;99.90
18797;DHT22;9526;52.612;13.300;2023-09-19T07:59:45;19.40;99.90
18797;DHT22;9526;52.612;13.300;2023-09-19T08:02:08;19.40;99.90
18797;DHT22;9526;52.612;13.300;2023-09-19T08:04:38;19.50;99.90
18797;DHT22;9526;52.612;13.300;2023-09-19T08:07:02;19.50;99.90
18797;DHT22;9526;52.612;13.300;2023-09-19T08:09:27;19.50;99.90
18797;DHT22;9526;52.612;13.300;2023-09-19T08:11:55;19.40;99.90
18797;DHT22;9526;52.612;13.300;2023-09-19T08:14:20;19.30;99.90
18797;DHT22;9526;52.612;13.300;2023-09-19T08:16:45;19.20;99.90
18797;DHT22;9526;52.612;13.300;2023-09-19T08:19:10;19.30;99.90
18797;DHT22;9526;52.612;13.300;2023-09-19T08:21:34;19.10;99.90
18797;DHT22;9526;52.612;13.300;2023-09-19T08:23:58;19.10;99.90
18797;DHT22;9526;52.612;13.300;2023-09-19T08:26:23;18.90;99.90
18797;DHT22;9526;52.612;13.300;2023-09-19T08:28:47;18.80;99.90
18797;DHT22;9526;52.612;13.300;2023-09-19T08:31:14;18.80;99.90
18797;DHT22;9526;52.612;13.300;2023-09-19T08:33:39;18.90;99.90
18797;DHT22;9526;52.612;13.300;2023-09-19T08:36:04;18.90;99.90
18797;DHT22;9526;52.612;13.300;2023-09-19T08:38:30;19.00;99.90
18797;DHT22;9526;52.612;13.300;2023-09-19T08:40:56;19.00;99.90
18797;DHT22;9526;52.612;13.300;2023-09-19T08:43:21;19.20;99.90
18797;DHT22;9526;52.612;13.300;2023-09-19T08:45:46;19.30;99.90
18797;DHT22;9526;52.612;13.300;2023-09-19T08:48:22;19.30;99.90
18797;DHT22;9526;52.612;13.300;2023-09-19T08:50:51;19.30;99.90
18797;DHT22;9526;52.612;13.300;2023-09-19T08:53:24;19.30;99.90
18797;DHT22;9526;52.612;13.300;2023-09-19T08:55:51;19.40;99.90
18797;DHT22;9526;52.612;13.300;2023-09-19T08:58:19;19.50;99.90
18797;DHT22;9526;52.612;13.300;2023-09-19T09:00:48;19.50;99.90
18797;DHT22;9526;52.612;13.300;2023-09-19T09:03:14;19.60;99.90
18797;DHT22;9526;52.612;13.300;2023-09-19T09:05:43;19.60;99.90
18797;DHT22;9526;52.612;13.300;2023-09-19T09:08:09;19.70;99.90
18797;DHT22;9526;52.612;13.300;2023-09-19T09:10:33;19.70;99.90
18797;DHT22;9526;52.612;13.300;2023-09-19T09:12:58;19.90;99.90
18797;DHT22;9526;52.612;13.300;2023-09-19T09:15:23;20.00;99.90
18797;DHT22;9526;52.612;13.300;2023-09-19T09:17:47;20.10;99.90
18797;DHT22;9526;52.612;13.300;2023-09-19T09:20:14;20.30;99.90
18797;DHT22;9526;52.612;13.300;2023-09-19T09:22:38;20.50;99.90
18797;DHT22;9526;52.612;13.300;2023-09-19T09:25:07;20.60;99.90
18797;DHT22;9526;52.612;13.300;2023-09-19T09:27:31;20.60;99.90
18797;DHT22;9526;52.612;13.300;2023-09-19T09:29:56;20.80;99.90
18797;DHT22;9526;52.612;13.300;2023-09-19T09:32:21;20.80;99.90
18797;DHT22;9526;52.612;13.300;2023-09-19T09:34:46;20.70;99.90
18797;DHT22;9526;52.612;13.300;2023-09-19T09:37:15;20.60;99.90
18797;DHT22;9526;52.612;13.300;2023-09-19T09:39:38;20.50;99.90
18797;DHT22;9526;52.612;13.300;2023-09-19T09:42:05;20.50;99.90
18797;DHT22;9526;52.612;13.300;2023-09-19T09:44:32;20.40;99.90
18797;DHT22;9526;52.612;13.300;2023-09-19T09:46:55;20.70;99.90
18797;DHT22;9526;52.612;13.300;2023-09-19T09:49:49;20.90;99.90
18797;DHT22;9526;52.612;13.300;2023-09-19T09:52:44;21.20;99.90
18797;DHT22;9526;52.612;13.300;2023-09-19T09:55:08;21.50;99.90
18797;DHT22;9526;52.612;13.300;2023-09-19T09:57:32;21.70;99.90
18797;DHT22;9526;52.612;13.300;2023-09-19T09:59:58;21.80;99.90
18797;DHT22;9526;52.612;13.300;2023-09-19T10:02:39;22.20;99.90
18797;DHT22;9526;52.612;13.300;2023-09-19T10:05:12;22.20;99.90
18797;DHT22;9526;52.612;13.300;2023-09-19T10:07:44;22.50;99.90
18797;DHT22;9526;52.612;13.300;2023-09-19T10:10:12;22.60;99.90
18797;DHT22;9526;52.612;13.300;2023-09-19T10:12:45;22.90;99.90
18797;DHT22;9526;52.612;13.300;2023-09-19T10:15:11;22.60;99.90
18797;DHT22;9526;52.612;13.300;2023-09-19T10:17:38;22.40;99.90
18797;DHT22;9526;52.612;13.300;2023-09-19T10:20:06;22.60;99.90
18797;DHT22;9526;52.612;13.300;2023-09-19T10:22:41;22.50;99.90
18797;DHT22;9526;52.612;13.300;2023-09-19T10:25:09;23.00;99.90
18797;DHT22;9526;52.612;13.300;2023-09-19T10:27:36;23.10;99.90
18797;DHT22;9526;52.612;13.300;2023-09-19T10:30:00;22.80;99.90
18797;DHT22;9526;52.612;13.300;2023-09-19T10:32:26;22.70;99.90
18797;DHT22;9526;52.612;13.300;2023-09-19T10:34:55;23.00;99.90
18797;DHT22;9526;52.612;13.300;2023-09-19T10:37:21;23.30;99.90
18797;DHT22;9526;52.612;13.300;2023-09-19T10:39:49;22.90;99.90
18797;DHT22;9526;52.612;13.300;2023-09-19T10:42:19;22.60;99.90
18797;DHT22;9526;52.612;13.300;2023-09-19T10:44:45;22.80;99.90
18797;DHT22;9526;52.612;13.300;2023-09-19T10:47:11;23.00;99.90
18797;DHT22;9526;52.612;13.300;2023-09-19T10:49:43;23.30;99.90
18797;DHT22;9526;52.612;13.300;2023-09-19T10:52:09;23.20;99.90
18797;DHT22;9526;52.612;13.300;2023-09-19T10:54:37;23.30;99.90
18797;DHT22;9526;52.612;13.300;2023-09-19T10:57:05;23.10;99.90
18797;DHT22;9526;52.612;13.300;2023-09-19T10:59:31;23.00;99.90
18797;DHT22;9526;52.612;13.300;2023-09-19T11:01:57;23.10;99.90
18797;DHT22;9526;52.612;13.300;2023-09-19T11:04:25;22.90;99.90
18797;DHT22;9526;52.612;13.300;2023-09-19T11:07:03;22.90;99.90
18797;DHT22;9526;52.612;13.300;2023-09-19T11:09:44;22.90;99.90
18797;DHT22;9526;52.612;13.300;2023-09-19T11:12:49;22.90;99.90
18797;DHT22;9526;52.612;13.300;2023-09-19T11:18:55;22.50;99.90
18797;DHT22;9526;52.612;13.300;2023-09-19T11:21:39;22.10;99.90
18797;DHT22;9526;52.612;13.300;2023-09-19T11:24:30;22.10;99.90
18797;DHT22;9526;52.612;13.300;2023-09-19T11:27:14;22.10;99.90
18797;DHT22;9526;52.612;13.300;2023-09-19T11:29:40;22.20;99.90
18797;DHT22;9526;52.612;13.300;2023-09-19T11:32:04;22.20;99.90
18797;DHT22;9526;52.612;13.300;2023-09-19T11:34:42;22.10;99.90
18797;DHT22;9526;52.612;13.300;2023-09-19T11:40:33;22.10;99.90
18797;DHT22;9526;52.612;13.300;2023-09-19T11:42:59;22.40;99.90
18797;DHT22;9526;52.612;13.300;2023-09-19T11:48:39;22.10;99.80
18797;DHT22;9526;52.612;13.300;2023-09-19T11:51:15;22.10;99.90
18797;DHT22;9526;52.612;13.300;2023-09-19T11:53:45;22.20;99.90
18797;DHT22;9526;52.612;13.300;2023-09-19T11:56:11;22.30;99.90
18797;DHT22;9526;52.612;13.300;2023-09-19T11:58:41;22.30;99.90
18797;DHT22;9526;52.612;13.300;2023-09-19T12:01:05;22.10;99.70
18797;DHT22;9526;52.612;13.300;2023-09-19T12:03:37;22.00;99.90
18797;DHT22;9526;52.612;13.300;2023-09-19T12:06:10;21.60;99.90
18797;DHT22;9526;52.612;13.300;2023-09-19T12:08:39;21.60;99.90
18797;DHT22;9526;52.612;13.300;2023-09-19T12:11:04;21.70;99.90
18797;DHT22;9526;52.612;13.300;2023-09-19T12:13:33;21.70;99.90
18797;DHT22;9526;52.612;13.300;2023-09-19T12:15:58;21.90;99.90
18797;DHT22;9526;52.612;13.300;2023-09-19T12:18:29;22.10;99.90
18797;DHT22;9526;52.612;13.300;2023-09-19T12:20:52;22.30;99.90
18797;DHT22;9526;52.612;13.300;2023-09-19T12:23:17;22.40;99.90
18797;DHT22;9526;52.612;13.300;2023-09-19T12:25:42;22.30;99.90
18797;DHT22;9526;52.612;13.300;2023-09-19T12:28:09;22.30;99.90
18797;DHT22;9526;52.612;13.300;2023-09-19T12:30:33;22.10;99.90
18797;DHT22;9526;52.612;13.300;2023-09-19T12:33:00;22.10;99.90
18797;DHT22;9526;52.612;13.300;2023-09-19T12:35:29;22.10;99.90
18797;DHT22;9526;52.612;13.300;2023-09-19T12:37:57;22.10;99.80
18797;DHT22;9526;52.612;13.300;2023-09-19T12:40:21;22.00;99.90
18797;DHT22;9526;52.612;13.300;2023-09-19T12:42:53;22.10;99.90
18797;DHT22;9526;52.612;13.300;2023-09-19T12:45:17;21.80;99.50
18797;DHT22;9526;52.612;13.300;2023-09-19T12:48:22;21.70;99.90
18797;DHT22;9526;52.612;13.300;2023-09-19T12:51:02;21.70;99.90
18797;DHT22;9526;52.612;13.300;2023-09-19T12:53:30;21.80;99.90
18797;DHT22;9526;52.612;13.300;2023-09-19T12:56:00;21.80;99.90
18797;DHT22;9526;52.612;13.300;2023-09-19T12:58:24;21.90;99.90
18797;DHT22;9526;52.612;13.300;2023-09-19T13:00:48;22.00;99.90
18797;DHT22;9526;52.612;13.300;2023-09-19T13:03:17;21.80;99.90
18797;DHT22;9526;52.612;13.300;2023-09-19T13:05:53;21.90;99.90
18797;DHT22;9526;52.612;13.300;2023-09-19T13:08:18;21.90;99.90
18797;DHT22;9526;52.612;13.300;2023-09-19T13:11:05;21.70;99.90
18797;DHT22;9526;52.612;13.300;2023-09-19T13:13:35;21.80;99.90
18797;DHT22;9526;52.612;13.300;2023-09-19T13:16:02;21.60;99.80
18797;DHT22;9526;52.612;13.300;2023-09-19T13:18:30;21.50;99.90
18797;DHT22;9526;52.612;13.300;2023-09-19T13:21:09;21.50;99.90
18797;DHT22;9526;52.612;13.300;2023-09-19T13:23:34;21.50;99.90
18797;DHT22;9526;52.612;13.300;2023-09-19T13:25:59;21.50;99.90
18797;DHT22;9526;52.612;13.300;2023-09-19T13:28:22;21.50;99.90
18797;DHT22;9526;52.612;13.300;2023-09-19T13:30:46;21.50;99.90
18797;DHT22;9526;52.612;13.300;2023-09-19T13:33:11;21.60;99.90
18797;DHT22;9526;52.612;13.300;2023-09-19T13:35:41;21.50;99.90
18797;DHT22;9526;52.612;13.300;2023-09-19T13:38:06;21.40;99.90
18797;DHT22;9526;52.612;13.300;2023-09-19T13:40:34;21.30;99.90
18797;DHT22;9526;52.612;13.300;2023-09-19T13:42:57;21.40;99.90
18797;DHT22;9526;52.612;13.300;2023-09-19T13:45:21;21.60;99.90
18797;DHT22;9526;52.612;13.300;2023-09-19T13:47:46;21.60;99.90
18797;DHT22;9526;52.612;13.300;2023-09-19T13:50:10;21.50;99.90
18797;DHT22;9526;52.612;13.300;2023-09-19T13:52:34;21.40;99.90
18797;DHT22;9526;52.612;13.300;2023-09-19T13:55:00;21.30;99.90
18797;DHT22;9526;52.612;13.300;2023-09-19T13:57:23;21.40;99.90
18797;DHT22;9526;52.612;13.300;2023-09-19T13:59:47;21.20;99.90
18797;DHT22;9526;52.612;13.300;2023-09-19T14:02:11;21.20;99.90
18797;DHT22;9526;52.612;13.300;2023-09-19T14:04:36;21.00;99.90
18797;DHT22;9526;52.612;13.300;2023-09-19T14:07:00;21.10;99.90
18797;DHT22;9526;52.612;13.300;2023-09-19T14:09:24;21.10;99.90
18797;DHT22;9526;52.612;13.300;2023-09-19T14:11:49;21.10;99.90
18797;DHT22;9526;52.612;13.300;2023-09-19T14:14:14;21.00;99.90
18797;DHT22;9526;52.612;13.300;2023-09-19T14:16:38;21.00;99.90
18797;DHT22;9526;52.612;13.300;2023-09-19T14:19:05;21.00;99.90
18797;DHT22;9526;52.612;13.300;2023-09-19T14:21:32;20.90;99.90
18797;DHT22;9526;52.612;13.300;2023-09-19T14:23:56;20.90;99.90
18797;DHT22;9526;52.612;13.300;2023-09-19T14:26:19;20.90;99.90
18797;DHT22;9526;52.612;13.300;2023-09-19T14:28:46;21.10;99.90
18797;DHT22;9526;52.612;13.300;2023-09-19T14:31:11;21.10;99.90
18797;DHT22;9526;52.612;13.300;2023-09-19T14:33:35;21.10;99.90
18797;DHT22;9526;52.612;13.300;2023-09-19T14:36:01;21.10;99.90
18797;DHT22;9526;52.612;13.300;2023-09-19T14:38:27;21.00;99.90
18797;DHT22;9526;52.612;13.300;2023-09-19T14:40:59;21.10;99.90
18797;DHT22;9526;52.612;13.300;2023-09-19T14:43:23;21.00;99.90
18797;DHT22;9526;52.612;13.300;2023-09-19T14:45:48;20.90;99.90
18797;DHT22;9526;52.612;13.300;2023-09-19T14:48:13;20.90;99.90
18797;DHT22;9526;52.612;13.300;2023-09-19T14:50:37;20.90;99.90
18797;DHT22;9526;52.612;13.300;2023-09-19T14:53:00;20.90;99.90
18797;DHT22;9526;52.612;13.300;2023-09-19T14:55:25;20.80;99.90
18797;DHT22;9526;52.612;13.300;2023-09-19T14:57:49;20.70;99.90
18797;DHT22;9526;52.612;13.300;2023-09-19T15:00:15;20.80;99.90
18797;DHT22;9526;52.612;13.300;2023-09-19T15:02:41;20.90;99.90
18797;DHT22;9526;52.612;13.300;2023-09-19T15:05:08;20.80;99.90
18797;DHT22;9526;52.612;13.300;2023-09-19T15:07:35;20.80;99.90
18797;DHT22;9526;52.612;13.300;2023-09-19T15:10:00;20.60;99.90
18797;DHT22;9526;52.612;13.300;2023-09-19T15:12:24;20.60;99.90
18797;DHT22;9526;52.612;13.300;2023-09-19T15:14:47;20.60;99.90
18797;DHT22;9526;52.612;13.300;2023-09-19T15:17:11;20.60;99.90
18797;DHT22;9526;52.612;13.300;2023-09-19T15:19:36;20.60;99.90
18797;DHT22;9526;52.612;13.300;2023-09-19T15:22:00;20.50;99.90
18797;DHT22;9526;52.612;13.300;2023-09-19T15:24:24;20.50;99.90
18797;DHT22;9526;52.612;13.300;2023-09-19T15:26:48;20.50;99.90
18797;DHT22;9526;52.612;13.300;2023-09-19T15:29:13;20.50;99.90
18797;DHT22;9526;52.612;13.300;2023-09-19T15:31:38;20.60;99.90
18797;DHT22;9526;52.612;13.300;2023-09-19T15:34:01;20.50;99.90
18797;DHT22;9526;52.612;13.300;2023-09-19T15:36:27;20.50;99.90